sensor_id;sensor_type;location;lat;lon;timestamp;P1;P2;P0
68198;PMS7003;55021;51.554;17.044;2023-04-01T00:02:54;10.50;9.75;5.00
68198;PMS7003;55021;51.554;17.044;2023-04-01T00:17:58;8.25;8.25;3.50
68198;PMS7003;55021;51.554;17.044;2023-04-01T00:33:01;8.75;8.00;3.00
68198;PMS7003;55021;51.554;17.044;2023-04-01T00:48:06;8.00;7.50;2.75
68198;PMS7003;55021;51.554;17.044;2023-04-01T01:03:12;11.75;11.00;3.00
68198;PMS7003;55021;51.554;17.044;2023-04-01T01:18:16;8.50;8.50;3.00
68198;PMS7003;55021;51.554;17.044;2023-04-01T01:33:41;10.25;9.25;3.50
68198;PMS7003;55021;51.554;17.044;2023-04-01T01:48:54;11.00;10.50;4.00
68198;PMS7003;55021;51.554;17.044;2023-04-01T02:03:58;11.00;10.25;4.75
68198;PMS7003;55021;51.554;17.044;2023-04-01T02:19:01;15.00;9.25;3.00
68198;PMS7003;55021;51.554;17.044;2023-04-01T02:34:06;12.25;10.00;3.00
68198;PMS7003;55021;51.554;17.044;2023-04-01T02:49:09;11.25;7.75;2.75
68198;PMS7003;55021;51.554;17.044;2023-04-01T03:04:12;10.50;8.50;3.00
68198;PMS7003;55021;51.554;17.044;2023-04-01T03:19:14;7.75;7.00;2.00
68198;PMS7003;55021;51.554;17.044;2023-04-01T03:34:17;13.75;8.50;3.00
68198;PMS7003;55021;51.554;17.044;2023-04-01T03:49:19;8.00;8.00;3.00
68198;PMS7003;55021;51.554;17.044;2023-04-01T04:04:22;8.25;8.00;4.00
68198;PMS7003;55021;51.554;17.044;2023-04-01T04:19:24;12.00;11.00;4.25
68198;PMS7003;55021;51.554;17.044;2023-04-01T04:34:28;11.50;9.25;4.00
68198;PMS7003;55021;51.554;17.044;2023-04-01T04:49:30;11.75;10.25;4.00
68198;PMS7003;55021;51.554;17.044;2023-04-01T05:04:35;17.75;13.25;6.00
68198;PMS7003;55021;51.554;17.044;2023-04-01T05:19:38;17.25;13.50;7.00
68198;PMS7003;55021;51.554;17.044;2023-04-01T05:34:41;19.50;15.00;7.50
68198;PMS7003;55021;51.554;17.044;2023-04-01T05:49:43;16.50;16.25;9.00
68198;PMS7003;55021;51.554;17.044;2023-04-01T06:04:46;20.25;15.75;7.50
68198;PMS7003;55021;51.554;17.044;2023-04-01T06:19:50;15.75;15.25;7.25
68198;PMS7003;55021;51.554;17.044;2023-04-01T06:35:04;16.00;14.75;8.00
68198;PMS7003;55021;51.554;17.044;2023-04-01T06:50:21;12.50;12.25;6.00
68198;PMS7003;55021;51.554;17.044;2023-04-01T07:05:32;18.25;13.25;7.00
68198;PMS7003;55021;51.554;17.044;2023-04-01T07:20:36;17.25;15.00;8.00
68198;PMS7003;55021;51.554;17.044;2023-04-01T07:35:41;22.50;16.00;8.00
68198;PMS7003;55021;51.554;17.044;2023-04-01T07:50:50;18.50;17.25;8.00
68198;PMS7003;55021;51.554;17.044;2023-04-01T08:06:00;20.00;18.25;9.50
68198;PMS7003;55021;51.554;17.044;2023-04-01T08:21:10;16.25;16.00;9.00
68198;PMS7003;55021;51.554;17.044;2023-04-01T08:36:19;14.00;14.00;7.00
68198;PMS7003;55021;51.554;17.044;2023-04-01T09:07:11;18.50;15.75;8.50
68198;PMS7003;55021;51.554;17.044;2023-04-01T09:38:08;17.50;13.50;7.50
68198;PMS7003;55021;51.554;17.044;2023-04-01T09:53:40;13.25;12.00;5.75
68198;PMS7003;55021;51.554;17.044;2023-04-01T10:55:56;18.75;17.75;10.50
68198;PMS7003;55021;51.554;17.044;2023-04-01T11:11:28;16.00;15.00;7.50
68198;PMS7003;55021;51.554;17.044;2023-04-01T11:26:59;12.75;11.00;5.00
68198;PMS7003;55021;51.554;17.044;2023-04-01T11:42:14;12.75;10.75;5.00
68198;PMS7003;55021;51.554;17.044;2023-04-01T12:12:55;46.75;36.75;20.50
68198;PMS7003;55021;51.554;17.044;2023-04-01T12:28:08;20.50;16.25;9.00
68198;PMS7003;55021;51.554;17.044;2023-04-01T12:43:32;20.00;16.25;8.00
68198;PMS7003;55021;51.554;17.044;2023-04-01T13:29:59;47.50;35.50;20.75
68198;PMS7003;55021;51.554;17.044;2023-04-01T13:45:19;65.75;50.00;30.50
68198;PMS7003;55021;51.554;17.044;2023-04-01T14:00:27;47.50;38.25;19.75
68198;PMS7003;55021;51.554;17.044;2023-04-01T14:15:50;42.25;34.00;20.00
68198;PMS7003;55021;51.554;17.044;2023-04-01T14:31:11;39.00;29.50;16.25
68198;PMS7003;55021;51.554;17.044;2023-04-01T14:46:29;51.75;38.25;24.25
68198;PMS7003;55021;51.554;17.044;2023-04-01T15:01:43;45.75;37.50;20.00
68198;PMS7003;55021;51.554;17.044;2023-04-01T15:16:55;50.75;37.00;21.25
68198;PMS7003;55021;51.554;17.044;2023-04-01T15:32:12;57.00;42.25;23.75
68198;PMS7003;55021;51.554;17.044;2023-04-01T15:47:31;54.75;44.25;26.00
68198;PMS7003;55021;51.554;17.044;2023-04-01T16:02:42;49.50;41.25;23.00
68198;PMS7003;55021;51.554;17.044;2023-04-01T16:33:18;58.00;43.75;25.00
68198;PMS7003;55021;51.554;17.044;2023-04-01T16:48:30;60.25;47.00;25.25
68198;PMS7003;55021;51.554;17.044;2023-04-01T17:03:51;58.75;46.25;25.00
68198;PMS7003;55021;51.554;17.044;2023-04-01T17:19:01;54.25;42.50;23.75
68198;PMS7003;55021;51.554;17.044;2023-04-01T17:34:21;52.75;41.25;24.00
68198;PMS7003;55021;51.554;17.044;2023-04-01T17:49:48;55.50;42.75;24.75
68198;PMS7003;55021;51.554;17.044;2023-04-01T18:05:03;53.00;42.75;24.00
68198;PMS7003;55021;51.554;17.044;2023-04-01T18:20:23;55.25;44.75;25.50
68198;PMS7003;55021;51.554;17.044;2023-04-01T18:35:43;69.25;50.25;28.00
68198;PMS7003;55021;51.554;17.044;2023-04-01T18:51:01;63.75;47.50;28.00
68198;PMS7003;55021;51.554;17.044;2023-04-01T19:06:16;61.50;47.75;28.75
68198;PMS7003;55021;51.554;17.044;2023-04-01T19:21:26;56.00;44.75;25.50
68198;PMS7003;55021;51.554;17.044;2023-04-01T19:36:31;54.00;41.00;24.75
68198;PMS7003;55021;51.554;17.044;2023-04-01T19:51:48;42.25;36.75;22.00
68198;PMS7003;55021;51.554;17.044;2023-04-01T20:07:00;43.75;35.75;20.00
68198;PMS7003;55021;51.554;17.044;2023-04-01T20:22:19;53.75;41.75;21.75
68198;PMS7003;55021;51.554;17.044;2023-04-01T20:37:32;57.00;42.00;23.50
68198;PMS7003;55021;51.554;17.044;2023-04-01T20:52:40;55.00;42.50;24.25
68198;PMS7003;55021;51.554;17.044;2023-04-01T21:07:54;60.50;44.75;24.50
68198;PMS7003;55021;51.554;17.044;2023-04-01T21:23:13;54.75;43.50;24.00
68198;PMS7003;55021;51.554;17.044;2023-04-01T21:38:27;50.75;42.75;25.75
68198;PMS7003;55021;51.554;17.044;2023-04-01T21:53:51;58.25;43.00;25.50
68198;PMS7003;55021;51.554;17.044;2023-04-01T22:09:15;61.75;43.50;24.75
68198;PMS7003;55021;51.554;17.044;2023-04-01T22:24:25;60.75;44.00;24.75
68198;PMS7003;55021;51.554;17.044;2023-04-01T22:55:04;53.25;44.00;21.50
68198;PMS7003;55021;51.554;17.044;2023-04-01T23:10:14;63.50;45.50;26.00
68198;PMS7003;55021;51.554;17.044;2023-04-01T23:25:27;48.75;40.50;19.75
68198;PMS7003;55021;51.554;17.044;2023-04-01T23:40:40;49.50;39.25;20.25
68198;PMS7003;55021;51.554;17.044;2023-04-01T23:55:43;53.75;39.50;21.00
